Gabbs, Nevada
Current Conditions -  °F | °C
As of 12:56 PM on Tuesday 21 Oct 2014 (Local Time) from KNFL Reporting Station
Broken Clouds Broken Clouds  
Wind Chill: 59°   Ceiling: 25000
Heat Index: 59°   Visibility: 10mi
Dew Point: 26°   Wind: 5mph
Humidity: 28%   Direction: 20°NNE
Pressure: 30.09"   Gusts: NA
Location:  38.87°N, 117.92°W
Report Text: KNFL 211956Z 02004KT 10SM FEW100 FEW160 BKN250 15/M03 A3009 RMK AO2 SLP157 T01501033
Loading
Personal Weather Stations






























Interactive Weather Map
Tropical Storm Tracking
New forecast layout! Learn more

10-Day Weather Forecast

Advertisements
Track Severe Weather on mobile